Impacts METAR Board
IDs:

KPDX - Portland Intl Arpt, OR, US

Updated at: 2100 UTC 01 Feb 2023
Potential Impact None Slight Moderate High
Time 01/09Z 01/10Z 01/11Z 01/12Z 01/13Z 01/14Z 01/15Z 01/16Z 01/17Z 01/18Z 01/19Z 01/20Z 01/21Z
Temp32 32 32 29 30 30 30 30 32 36 38 42 45
Dewpt26 25 25 24 25 25 26 25 27 27 26 26 25
Altim30.19 30.19 30.19 30.19 30.19 30.19 30.19 30.20 30.19 30.20 30.20 30.18 30.16
VIS10 10 10 10 10 10 10 9 10 10 10 10 10
CIG-- -- -- 160 160 -- 250 250 250 210 250 -- --
CoverSCTSCTSCTBKNBKNFEWBKNBKNBKNBKNBKNSCTSCT
FltCatVFRVFRVFRVFRVFRVFRVFRVFRVFRVFRVFRVFRVFR
WX--------------------------
WDir70120900000011090110110100
WSpd4 4 3 0 0 0 0 0 5 4 5 8 5
WGst-- -- -- -- -- -- -- -- -- -- -- -- --
Raw hourly METARs
KPDX 010853Z 07004KT 10SM FEW150 SCT200 00/M03 A3019 RMK AO2 SLP222 T00001033 58001
KPDX 010953Z 12004KT 10SM FEW150 SCT200 00/M04 A3019 RMK AO2 SLP222 T00001039
KPDX 011053Z 09003KT 10SM SCT200 00/M04 A3019 RMK AO2 SLP224 T00001039
KPDX 011153Z 00000KT 10SM BKN160 M02/M04 A3019 RMK AO2 SLP224 T10171044 10017 21028 51002
KPDX 011253Z 00000KT 10SM BKN160 M01/M04 A3019 RMK AO2 SLP222 T10111039
KPDX 011353Z 00000KT 10SM FEW160 M01/M04 A3019 RMK AO2 SLP221 T10111039
KPDX 011453Z 00000KT 10SM SCT180 BKN250 M01/M03 A3019 RMK AO2 SLP224 T10111033 55000
KPDX 011553Z 00000KT 9SM SCT180 BKN250 M01/M04 A3020 RMK AO2 SLP224 T10111039
KPDX 011653Z 11005KT 10SM SCT180 BKN250 00/M03 A3019 RMK AO2 SLP223 T00001028
KPDX 011753Z 09004KT 10SM FEW180 BKN210 BKN250 02/M03 A3020 RMK AO2 SLP226 T00221028 10022 21028 53002
KPDX 011853Z 11005KT 10SM FEW180 FEW210 BKN250 03/M03 A3020 RMK AO2 SLP227 T00331033
KPDX 011953Z 11008KT 10SM FEW210 SCT250 06/M03 A3018 RMK AO2 SLP219 T00561033
KPDX 012053Z 10005KT 10SM FEW210 SCT250 07/M04 A3016 RMK AO2 SLP214 T00721039 58012



Page loaded:  21:39 UTC  |   01:39 PM Pacific  |   02:39 PM Mountain  |   03:39 PM Central  |   04:39 PM Eastern

 

ADVISORIES

FORECASTS

FORECASTS

OBSERVATIONS

USER TOOLS

ABOUT US